Time;durP1;ratioP1;P1;durP2;ratioP2;P2;SDS_P1;SDS_P2;PMS_P1;PMS_P2;Temp;Humidity;BMP_temperature;BMP_pressure;BME280_temperature;BME280_humidity;BME280_pressure;Samples;Min_cycle;Max_cycle;Signal;HPM_P1;HPM_P2
2022/12/11 00:01:20;;;;;;;70.10;31.70;;;;;;;5.13;100.00;99351.06;107680;1257;60367;-79
2022/12/11 00:03:49;;;;;;;71.70;29.70;;;;;;;5.09;100.00;99348.08;107749;1267;73180;-80
2022/12/11 00:06:22;;;;;;;69.60;31.30;;;;;;;5.08;100.00;99340.56;107852;1260;72497;-79
2022/12/11 00:08:53;;;;;;;64.50;28.50;;;;;;;5.10;100.00;99331.61;107791;1258;70749;-79
2022/12/11 00:11:22;;;;;;;71.30;32.80;;;;;;;5.12;100.00;99331.79;107735;1262;63572;-77
2022/12/11 00:13:51;;;;;;;71.90;32.30;;;;;;;5.18;100.00;99336.19;107880;1260;57763;-79
2022/12/11 00:16:20;;;;;;;78.40;32.10;;;;;;;5.20;100.00;99329.65;107802;1264;57718;-78
2022/12/11 00:18:54;;;;;;;82.90;31.10;;;;;;;5.19;100.00;99317.08;107872;1260;62940;-75
2022/12/11 00:21:23;;;;;;;87.90;32.60;;;;;;;5.18;100.00;99309.41;107996;1259;60854;-78
2022/12/11 00:23:52;;;;;;;77.20;32.90;;;;;;;5.13;100.00;99299.11;107756;1259;69525;-81
2022/12/11 00:26:21;;;;;;;82.80;33.20;;;;;;;5.19;100.00;99306.98;107592;1265;72838;-79
2022/12/11 00:28:56;;;;;;;98.60;34.70;;;;;;;5.23;100.00;99303.73;107786;1259;57078;-78
2022/12/11 00:31:24;;;;;;;97.40;33.60;;;;;;;5.31;100.00;99296.73;107990;1254;57662;-79
2022/12/11 00:33:53;;;;;;;71.20;32.30;;;;;;;5.33;100.00;99294.01;107868;1264;62131;-75
2022/12/11 00:36:25;;;;;;;71.10;30.40;;;;;;;5.39;100.00;99290.29;107817;1255;71467;-74
2022/12/11 00:38:54;;;;;;;67.90;32.40;;;;;;;5.41;100.00;99288.77;107867;1262;70301;-73
2022/12/11 00:41:23;;;;;;;65.60;29.80;;;;;;;5.42;100.00;99287.81;107812;1258;72847;-75
2022/12/11 00:43:51;;;;;;;72.00;30.10;;;;;;;5.39;100.00;99277.16;107968;1254;63311;-74
2022/12/11 00:46:20;;;;;;;64.00;31.90;;;;;;;5.32;100.00;99272.00;107811;1265;57662;-75
2022/12/11 00:48:49;;;;;;;70.70;29.70;;;;;;;5.32;100.00;99269.90;107877;1256;71025;-80
2022/12/11 00:51:18;;;;;;;70.60;31.80;;;;;;;5.31;100.00;99268.25;107866;1268;61645;-80
2022/12/11 00:53:47;;;;;;;75.70;32.30;;;;;;;5.40;100.00;99274.52;107668;1259;70465;-80
2022/12/11 00:56:20;;;;;;;64.80;30.80;;;;;;;5.42;100.00;99272.68;107797;1259;64051;-79
2022/12/11 00:58:49;;;;;;;75.50;33.10;;;;;;;5.46;100.00;99265.48;107672;1257;57388;-80
2022/12/11 01:01:22;;;;;;;65.30;32.70;;;;;;;5.50;100.00;99263.05;107687;1255;57158;-80
2022/12/11 01:03:53;;;;;;;66.40;31.70;;;;;;;5.49;100.00;99257.29;107761;1267;62185;-79
2022/12/11 01:06:25;;;;;;;75.30;34.20;;;;;;;5.51;100.00;99251.40;107872;1263;72480;-78
2022/12/11 01:11:42;;;;;;;54.50;29.00;;;;;;;5.49;100.00;99246.17;107617;1261;62677;-78
2022/12/11 01:14:13;;;;;;;57.60;28.30;;;;;;;5.41;100.00;99237.66;107595;1262;57655;-77
2022/12/11 01:16:41;;;;;;;52.10;27.20;;;;;;;5.30;100.00;99232.09;107626;1259;61150;-76
2022/12/11 01:19:10;;;;;;;43.80;24.10;;;;;;;5.24;100.00;99232.33;107802;1259;63403;-86
2022/12/11 01:23:12;;;;;;;48.40;26.80;;;;;;;5.13;100.00;99228.39;103241;1296;601830;-86
2022/12/11 01:25:42;;;;;;;54.50;26.90;;;;;;;5.01;100.00;99230.92;105352;1282;58604;-84
2022/12/11 01:28:10;;;;;;;56.70;28.60;;;;;;;4.93;100.00;99221.20;105339;1266;60261;-82
2022/12/11 01:30:42;;;;;;;52.50;28.70;;;;;;;4.86;100.00;99213.92;105612;1276;61894;-84
2022/12/11 01:33:11;;;;;;;51.90;28.50;;;;;;;4.79;100.00;99210.25;105474;1279;61605;-85
2022/12/11 01:35:40;;;;;;;43.00;23.40;;;;;;;4.73;100.00;99205.73;104682;1266;1511694;-85
2022/12/11 01:38:09;;;;;;;54.60;28.50;;;;;;;4.66;100.00;99202.27;106272;1269;73311;-85
2022/12/11 01:40:38;;;;;;;67.60;31.70;;;;;;;4.61;100.00;99197.27;106541;1269;61788;-83
2022/12/11 01:43:10;;;;;;;75.30;32.80;;;;;;;4.55;100.00;99184.23;106052;1269;60959;-84
2022/12/11 01:45:46;;;;;;;;;;;;;;;4.70;100.00;99177.66;105950;1264;71002;-83
2022/12/11 01:48:27;;;;;;;69.60;34.40;;;;;;;4.75;100.00;99181.42;105455;1269;61261;-79
2022/12/11 01:51:01;;;;;;;59.60;29.40;;;;;;;4.72;100.00;99185.11;105620;1264;68195;-76
2022/12/11 01:53:38;;;;;;;49.40;25.80;;;;;;;4.74;100.00;99185.15;105521;1270;63017;-77
2022/12/11 01:56:09;;;;;;;61.50;29.50;;;;;;;4.72;100.00;99173.57;105547;1269;59073;-79
2022/12/11 01:58:51;;;;;;;62.10;30.40;;;;;;;4.65;100.00;99162.48;105536;1259;60176;-76
2022/12/11 02:01:32;;;;;;;47.70;26.30;;;;;;;4.64;100.00;99165.17;105490;1267;73273;-76
2022/12/11 02:04:02;;;;;;;74.50;32.20;;;;;;;4.58;100.00;99156.79;105510;1266;61108;-76
2022/12/11 02:07:00;;;;;;;78.20;33.90;;;;;;;4.52;100.00;99171.88;105429;1266;69634;-77
2022/12/11 02:09:36;;;;;;;55.40;27.40;;;;;;;4.57;100.00;99172.07;105580;1267;63683;-82
2022/12/11 02:12:33;;;;;;;76.60;32.40;;;;;;;4.60;100.00;99166.65;105930;1269;59135;-79
2022/12/11 02:15:32;;;;;;;71.40;30.30;;;;;;;4.51;100.00;99151.58;105574;1262;61686;-79
2022/12/11 02:18:29;;;;;;;61.20;29.40;;;;;;;4.50;100.00;99160.80;105594;1270;70866;-77
2022/12/11 02:21:09;;;;;;;65.20;30.00;;;;;;;4.55;100.00;99163.07;105443;1266;72515;-83
2022/12/11 02:24:19;;;;;;;71.40;30.10;;;;;;;4.56;100.00;99157.79;105488;1272;70191;-81
2022/12/11 02:27:09;;;;;;;65.20;31.60;;;;;;;4.62;100.00;99160.51;105511;1274;73631;-81
2022/12/11 02:30:09;;;;;;;84.00;36.40;;;;;;;4.55;100.00;99152.20;105379;1267;61975;-77
2022/12/11 02:32:57;;;;;;;75.20;36.20;;;;;;;4.75;100.00;99148.30;105379;1263;58962;-79
2022/12/11 02:35:54;;;;;;;67.40;32.80;;;;;;;4.95;100.00;99151.52;105683;1269;71877;-85
2022/12/11 02:38:32;;;;;;;55.80;27.40;;;;;;;4.89;100.00;99149.36;105578;1266;71640;-82
2022/12/11 02:41:04;;;;;;;55.70;28.30;;;;;;;4.87;100.00;99144.70;105478;1276;59664;-80
2022/12/11 02:43:35;;;;;;;61.60;30.20;;;;;;;4.83;100.00;99140.00;105276;1267;63289;-80
2022/12/11 02:46:14;;;;;;;65.90;32.40;;;;;;;4.89;100.00;99127.32;105359;1259;62083;-82
2022/12/11 02:48:45;;;;;;;65.90;30.70;;;;;;;4.90;100.00;99129.64;105340;1269;60737;-80
2022/12/11 02:51:19;;;;;;;66.80;31.70;;;;;;;4.89;100.00;99130.40;105458;1266;62306;-78
2022/12/11 02:53:52;;;;;;;69.70;30.00;;;;;;;4.91;100.00;99130.41;105382;1262;71557;-78
2022/12/11 02:56:39;;;;;;;63.50;31.10;;;;;;;4.95;100.00;99133.38;105398;1266;69206;-78
2022/12/11 02:59:15;;;;;;;64.30;29.40;;;;;;;4.97;100.00;99137.20;105342;1277;63230;-79
2022/12/11 03:01:45;;;;;;;53.80;26.20;;;;;;;5.02;100.00;99144.06;105333;1272;62760;-78
2022/12/11 03:04:14;;;;;;;55.10;28.60;;;;;;;5.01;100.00;99135.88;105316;1268;61740;-78
2022/12/11 03:06:49;;;;;;;57.80;29.20;;;;;;;4.96;100.00;99127.79;105370;1272;73202;-79
2022/12/11 03:09:20;;;;;;;61.90;30.00;;;;;;;4.97;100.00;99125.48;105392;1266;72494;-78
2022/12/11 03:11:48;;;;;;;59.10;28.40;;;;;;;5.00;100.00;99121.08;105404;1259;70763;-83
2022/12/11 03:14:18;;;;;;;64.90;29.70;;;;;;;5.04;100.00;99117.03;105520;1270;63573;-84
2022/12/11 03:17:15;;;;;;;76.00;32.50;;;;;;;5.06;100.00;99109.46;105598;1277;57521;-83
2022/12/11 03:20:29;;;;;;;69.60;32.60;;;;;;;5.08;100.00;99102.95;105456;1268;59053;-83
2022/12/11 03:23:12;;;;;;;69.40;32.80;;;;;;;5.21;100.00;99097.80;105335;1268;73732;-82
2022/12/11 03:25:57;;;;;;;73.70;32.30;;;;;;;5.27;100.00;99097.80;105551;1266;60817;-81
2022/12/11 03:28:48;;;;;;;72.20;34.00;;;;;;;5.26;100.00;99095.84;105428;1277;60228;-82
2022/12/11 03:31:32;;;;;;;74.90;31.50;;;;;;;5.41;100.00;99092.65;105565;1266;72203;-81
2022/12/11 03:34:07;;;;;;;68.40;31.60;;;;;;;5.47;100.00;99085.61;105289;1271;62816;-81
2022/12/11 03:36:38;;;;;;;67.00;30.30;;;;;;;5.43;100.00;99078.48;105460;1275;60407;-82
2022/12/11 03:39:36;;;;;;;66.70;32.60;;;;;;;5.43;100.00;99077.44;105486;1277;72032;-76
2022/12/11 03:42:09;;;;;;;68.30;32.00;;;;;;;5.47;100.00;99078.52;105316;1277;62606;-79
2022/12/11 03:44:39;;;;;;;61.60;31.50;;;;;;;5.58;100.00;99073.88;105370;1268;69373;-78
2022/12/11 03:47:09;;;;;;;57.40;29.20;;;;;;;5.52;100.00;99058.59;105406;1266;74083;-77
2022/12/11 03:49:42;;;;;;;60.80;30.70;;;;;;;5.44;100.00;99047.84;105304;1266;63518;-80
2022/12/11 03:52:14;;;;;;;67.10;31.00;;;;;;;5.42;100.00;99037.48;105492;1266;60987;-79
2022/12/11 03:54:48;;;;;;;72.50;31.80;;;;;;;5.40;100.00;99021.60;105445;1270;62490;-79
2022/12/11 03:57:24;;;;;;;63.70;31.80;;;;;;;5.42;100.00;99017.31;105347;1276;73231;-78
2022/12/11 03:59:52;;;;;;;60.40;31.90;;;;;;;5.43;100.00;99013.40;105277;1266;60786;-78
2022/12/11 04:02:21;;;;;;;62.30;31.70;;;;;;;5.50;100.00;99013.03;105418;1265;71947;-80
2022/12/11 04:04:50;;;;;;;61.30;31.70;;;;;;;5.59;100.00;99016.98;105590;1275;62874;-80
2022/12/11 04:07:18;;;;;;;66.00;32.90;;;;;;;5.60;100.00;99017.30;105551;1269;61017;-82
2022/12/11 04:09:47;;;;;;;46.70;25.90;;;;;;;5.65;100.00;99020.02;105503;1266;61994;-81
2022/12/11 04:12:16;;;;;;;61.00;31.80;;;;;;;5.67;100.00;99014.27;105455;1275;70347;-81
2022/12/11 04:15:03;;;;;;;53.00;28.50;;;;;;;5.60;100.00;99001.14;105471;1262;70370;-81
2022/12/11 04:26:14;;;;;;;60.10;31.10;;;;;;;5.54;100.00;98965.72;105387;1267;70888;-78
2022/12/11 04:28:45;;;;;;;57.30;30.40;;;;;;;5.51;100.00;98958.36;105449;1275;62082;-79
2022/12/11 04:31:20;;;;;;;59.20;30.20;;;;;;;5.63;100.00;98956.05;105377;1263;69447;-77
2022/12/11 04:33:49;;;;;;;58.60;30.80;;;;;;;5.65;100.00;98946.11;105444;1264;73322;-78
2022/12/11 04:36:18;;;;;;;58.80;30.90;;;;;;;5.67;100.00;98945.86;105391;1273;57972;-78
2022/12/11 04:38:47;;;;;;;55.50;29.80;;;;;;;5.82;100.00;98944.64;105350;1269;58095;-77
2022/12/11 04:41:16;;;;;;;54.20;29.80;;;;;;;5.75;100.00;98937.09;105421;1263;73171;-79
2022/12/11 04:43:45;;;;;;;55.00;30.40;;;;;;;5.85;100.00;98929.11;105333;1262;61237;-78
2022/12/11 04:46:20;;;;;;;56.60;30.40;;;;;;;5.84;100.00;98922.20;105415;1262;69797;-76
2022/12/11 04:48:51;;;;;;;55.80;29.30;;;;;;;5.76;100.00;98922.84;105278;1269;63628;-77
2022/12/11 04:51:27;;;;;;;56.10;30.90;;;;;;;5.84;100.00;98915.23;105130;1262;59093;-78
2022/12/11 04:53:58;;;;;;;50.60;29.70;;;;;;;6.00;100.00;98910.98;105289;1263;61574;-80
2022/12/11 04:56:27;;;;;;;48.30;27.10;;;;;;;6.00;100.00;98910.60;105373;1272;73062;-79
2022/12/11 04:58:55;;;;;;;54.80;28.20;;;;;;;5.99;100.00;98912.80;105213;1265;71836;-78
2022/12/11 05:01:24;;;;;;;51.30;29.30;;;;;;;6.02;100.00;98912.84;105387;1266;60363;-78
2022/12/11 05:03:53;;;;;;;50.20;27.60;;;;;;;6.00;100.00;98913.84;105382;1262;62459;-80
2022/12/11 05:06:21;;;;;;;50.40;28.20;;;;;;;6.02;100.00;98907.48;105371;1273;62725;-79
2022/12/11 05:08:50;;;;;;;52.30;29.20;;;;;;;6.04;100.00;98911.14;105278;1264;59119;-79
2022/12/11 05:11:19;;;;;;;51.40;26.60;;;;;;;6.07;100.00;98909.18;105430;1266;62177;-78
2022/12/11 05:13:50;;;;;;;49.30;27.10;;;;;;;6.05;100.00;98907.39;105393;1266;70459;-78
2022/12/11 05:16:19;;;;;;;50.00;26.90;;;;;;;6.03;100.00;98907.26;105390;1272;59926;-78
2022/12/11 05:18:48;;;;;;;56.50;29.90;;;;;;;5.97;100.00;98905.36;105402;1266;63182;-82
2022/12/11 05:21:17;;;;;;;49.90;29.30;;;;;;;5.87;100.00;98903.70;105419;1266;61776;-81
2022/12/11 05:23:45;;;;;;;53.70;28.80;;;;;;;5.82;100.00;98904.20;105341;1263;60946;-80
2022/12/11 05:26:18;;;;;;;54.10;30.80;;;;;;;5.78;100.00;98908.02;105422;1266;62565;-81
2022/12/11 05:28:53;;;;;;;59.70;30.00;;;;;;;5.74;100.00;98909.19;105472;1266;61654;-80
2022/12/11 05:31:26;;;;;;;58.60;28.90;;;;;;;5.75;100.00;98907.41;105190;1269;69746;-80
2022/12/11 05:33:55;;;;;;;57.40;30.10;;;;;;;5.74;100.00;98896.83;105434;1271;65172;-79
2022/12/11 05:36:29;;;;;;;54.70;30.60;;;;;;;5.72;100.00;98893.51;105445;1267;59186;-82
2022/12/11 05:38:59;;;;;;;59.10;32.20;;;;;;;5.66;100.00;98884.85;105439;1256;60381;-82
2022/12/11 05:41:30;;;;;;;64.30;31.80;;;;;;;5.61;100.00;98874.58;105603;1261;62643;-81
2022/12/11 05:43:59;;;;;;;59.80;31.60;;;;;;;5.64;100.00;98871.39;105553;1273;72132;-85
2022/12/11 05:46:30;;;;;;;61.30;30.10;;;;;;;5.64;100.00;98873.29;106129;1265;70713;-83
2022/12/11 05:49:01;;;;;;;50.30;27.00;;;;;;;5.70;100.00;98870.54;105567;1265;74265;-79
2022/12/11 05:51:33;;;;;;;52.30;28.10;;;;;;;5.70;100.00;98866.42;105460;1267;62843;-81
2022/12/11 05:54:02;;;;;;;59.30;30.80;;;;;;;5.57;100.00;98867.63;105388;1257;60490;-83
2022/12/11 05:56:33;;;;;;;57.90;29.10;;;;;;;5.52;100.00;98875.11;105391;1272;62714;-82
2022/12/11 05:59:04;;;;;;;60.00;31.50;;;;;;;5.51;100.00;98873.11;105607;1266;71660;-82
2022/12/11 06:01:41;;;;;;;62.30;33.60;;;;;;;5.62;100.00;98865.14;105569;1263;70805;-82
2022/12/11 06:04:11;;;;;;;59.10;31.70;;;;;;;5.71;100.00;98865.92;105427;1266;73237;-82
2022/12/11 06:06:42;;;;;;;66.10;34.10;;;;;;;5.71;100.00;98859.59;105410;1266;62869;-81
2022/12/11 06:09:16;;;;;;;64.20;33.50;;;;;;;5.70;100.00;98857.56;105402;1262;59097;-79
2022/12/11 06:11:44;;;;;;;69.60;37.30;;;;;;;5.79;100.00;98853.41;105459;1274;73598;-81
2022/12/11 06:14:13;;;;;;;66.90;36.10;;;;;;;5.94;100.00;98852.86;105581;1265;61907;-81
2022/12/11 06:16:42;;;;;;;72.50;39.70;;;;;;;6.04;100.00;98845.16;105480;1263;69503;-86
2022/12/11 06:19:16;;;;;;;69.00;38.70;;;;;;;6.06;100.00;98838.88;105865;1263;73393;-83
2022/12/11 06:21:47;;;;;;;70.50;38.90;;;;;;;6.04;100.00;98842.39;105597;1272;58917;-80
2022/12/11 06:24:16;;;;;;;67.10;35.60;;;;;;;6.13;100.00;98832.64;105490;1267;59184;-77
2022/12/11 06:26:45;;;;;;;65.00;34.20;;;;;;;6.22;100.00;98824.11;105353;1264;73494;-82
2022/12/11 06:29:13;;;;;;;72.40;35.80;;;;;;;6.28;100.00;98818.89;105683;1274;72528;-78
2022/12/11 06:31:42;;;;;;;60.70;33.40;;;;;;;6.22;100.00;98811.31;105732;1261;61430;-80
2022/12/11 06:34:12;;;;;;;61.20;34.70;;;;;;;6.28;100.00;98808.53;105760;1266;62463;-77
2022/12/11 06:36:41;;;;;;;71.30;34.70;;;;;;;6.41;100.00;98805.88;105836;1263;59033;-80
2022/12/11 06:39:11;;;;;;;56.10;28.10;;;;;;;6.56;100.00;98802.98;105738;1266;57587;-81
2022/12/11 06:41:39;;;;;;;47.80;27.20;;;;;;;6.74;100.00;98801.79;105618;1263;73493;-79
2022/12/11 06:44:08;;;;;;;39.30;20.70;;;;;;;6.84;100.00;98797.30;105659;1260;63723;-81
2022/12/11 06:46:37;;;;;;;39.30;20.20;;;;;;;7.00;100.00;98787.11;105643;1274;59719;-82
2022/12/11 06:49:05;;;;;;;31.00;18.50;;;;;;;7.11;100.00;98779.06;105731;1260;73715;-81
2022/12/11 06:51:34;;;;;;;32.60;18.60;;;;;;;7.20;100.00;98776.20;105653;1264;58846;-83
2022/12/11 06:54:03;;;;;;;30.40;17.20;;;;;;;7.34;100.00;98783.19;105974;1261;61026;-81
2022/12/11 06:56:35;;;;;;;26.20;16.10;;;;;;;7.44;100.00;98783.69;106449;1263;73899;-81
2022/12/11 06:59:04;;;;;;;26.10;14.90;;;;;;;7.47;100.00;98782.52;106281;1257;72144;-82
2022/12/11 07:01:35;;;;;;;25.70;15.40;;;;;;;7.53;100.00;98782.20;106179;1263;60236;-81
2022/12/11 07:04:03;;;;;;;21.30;13.00;;;;;;;7.61;100.00;98773.14;105905;1260;73660;-79
2022/12/11 07:06:32;;;;;;;22.10;13.90;;;;;;;7.68;100.00;98757.94;105763;1267;59099;-79
2022/12/11 07:09:04;;;;;;;24.40;14.80;;;;;;;7.76;100.00;98747.04;105823;1269;59145;-82
2022/12/11 07:11:33;;;;;;;26.90;16.20;;;;;;;7.82;100.00;98744.51;105757;1267;62367;-78
2022/12/11 07:14:02;;;;;;;25.10;15.10;;;;;;;7.86;100.00;98733.30;105653;1260;70597;-79
2022/12/11 07:16:31;;;;;;;21.70;14.60;;;;;;;7.91;100.00;98725.33;105722;1263;70845;-78
2022/12/11 07:18:59;;;;;;;21.30;14.00;;;;;;;7.99;100.00;98712.67;105741;1257;74137;-75
2022/12/11 07:21:28;;;;;;;22.90;13.80;;;;;;;8.04;100.00;98708.41;105787;1263;61283;-78
2022/12/11 07:23:57;;;;;;;22.70;14.20;;;;;;;8.07;100.00;98709.48;105839;1263;59510;-79
2022/12/11 07:26:26;;;;;;;20.00;12.20;;;;;;;8.14;100.00;98712.81;105797;1270;62160;-81
2022/12/11 07:28:59;;;;;;;16.80;11.40;;;;;;;8.19;100.00;98716.29;105689;1266;61612;-79
2022/12/11 07:31:29;;;;;;;23.00;13.00;;;;;;;8.22;100.00;98719.83;105666;1269;69653;-78
2022/12/11 07:34:05;;;;;;;21.30;12.90;;;;;;;8.24;100.00;98720.31;105524;1266;73841;-80
2022/12/11 07:36:34;;;;;;;20.60;14.20;;;;;;;8.27;100.00;98725.94;105612;1269;62350;-78
2022/12/11 07:39:03;;;;;;;23.50;12.70;;;;;;;8.32;100.00;98725.84;105420;1263;59418;-80
2022/12/11 07:41:32;;;;;;;17.20;12.50;;;;;;;8.31;100.00;98725.23;105556;1259;73250;-80
2022/12/11 07:44:02;;;;;;;19.80;12.10;;;;;;;8.37;100.00;98720.21;105511;1275;72450;-77
2022/12/11 07:46:33;;;;;;;21.90;13.00;;;;;;;8.44;100.00;98724.25;105645;1259;60359;-79
2022/12/11 07:49:04;;;;;;;20.40;12.50;;;;;;;8.48;100.00;98724.14;105653;1269;74962;-80
2022/12/11 07:51:36;;;;;;;21.00;13.20;;;;;;;8.55;100.00;98720.08;105644;1266;59051;-81
2022/12/11 07:54:15;;;;;;;23.80;13.10;;;;;;;8.70;100.00;98714.80;105919;1266;60939;-81
2022/12/11 07:56:46;;;;;;;22.50;11.80;;;;;;;8.78;100.00;98712.96;105978;1257;62683;-81
2022/12/11 07:59:21;;;;;;;21.30;13.40;;;;;;;8.85;100.00;98703.16;106013;1266;60827;-83
2022/12/11 08:01:49;;;;;;;24.60;14.00;;;;;;;8.89;100.00;98702.27;106077;1274;69670;-83
2022/12/11 08:04:18;;;;;;;20.30;13.70;;;;;;;8.96;100.00;98701.80;105849;1265;62880;-83
2022/12/11 08:06:47;;;;;;;27.60;13.70;;;;;;;9.02;100.00;98701.46;106286;1266;59153;-85
2022/12/11 08:09:21;;;;;;;22.70;13.30;;;;;;;9.08;100.00;98701.52;106183;1263;59366;-80
2022/12/11 08:11:50;;;;;;;22.90;14.00;;;;;;;9.12;100.00;98702.73;105979;1252;73148;-80
2022/12/11 08:14:19;;;;;;;21.30;13.70;;;;;;;9.13;100.00;98700.20;106019;1264;70137;-80
2022/12/11 08:16:48;;;;;;;26.10;13.60;;;;;;;9.19;100.00;98692.30;105992;1271;59559;-80
2022/12/11 08:19:18;;;;;;;22.70;13.20;;;;;;;9.22;100.00;98684.66;105802;1268;73782;-80
2022/12/11 08:21:46;;;;;;;19.50;12.40;;;;;;;9.25;100.00;98678.20;106171;1253;61771;-79
2022/12/11 08:24:19;;;;;;;25.50;13.90;;;;;;;9.32;100.00;98679.56;106239;1267;58834;-80
2022/12/11 08:26:47;;;;;;;25.00;13.70;;;;;;;9.37;100.00;98679.92;106120;1257;72614;-80
2022/12/11 08:29:16;;;;;;;28.00;13.80;;;;;;;9.41;100.00;98676.75;106303;1269;62023;-82
2022/12/11 08:31:45;;;;;;;22.20;13.50;;;;;;;9.44;100.00;98671.37;106677;1260;59936;-81
2022/12/11 08:34:15;;;;;;;21.80;14.20;;;;;;;9.49;100.00;98664.66;106558;1271;72996;-81
2022/12/11 08:36:43;;;;;;;26.20;14.70;;;;;;;9.54;100.00;98663.23;107058;1257;63230;-85
2022/12/11 08:39:12;;;;;;;29.60;15.00;;;;;;;9.57;100.00;98653.60;107119;1266;58690;-82
2022/12/11 08:41:41;;;;;;;24.00;14.10;;;;;;;9.59;100.00;98648.49;106367;1269;62194;-83
2022/12/11 08:44:11;;;;;;;24.70;16.10;;;;;;;9.65;100.00;98642.35;106513;1266;73082;-83
2022/12/11 08:46:44;;;;;;;26.40;15.60;;;;;;;9.72;100.00;98627.05;106304;1264;69888;-81
2022/12/11 08:49:13;;;;;;;24.80;13.90;;;;;;;9.81;100.00;98623.17;106949;1264;62790;-85
2022/12/11 08:51:42;;;;;;;26.80;14.50;;;;;;;9.88;100.00;98619.17;107939;1248;58092;-87
2022/12/11 08:54:11;;;;;;;23.70;14.00;;;;;;;9.89;100.00;98606.23;107683;1263;60297;-87
2022/12/11 08:56:39;;;;;;;25.70;13.70;;;;;;;9.95;100.00;98600.88;107646;1268;63302;-78
2022/12/11 08:59:09;;;;;;;20.50;13.30;;;;;;;10.00;100.00;98597.54;107508;1267;60735;-86
2022/12/11 09:01:40;;;;;;;23.70;13.30;;;;;;;9.99;100.00;98581.13;107611;1266;67719;-83
2022/12/11 09:04:09;;;;;;;23.10;12.90;;;;;;;10.03;100.00;98575.31;107293;1269;62471;-80
2022/12/11 09:06:38;;;;;;;26.30;13.50;;;;;;;10.07;100.00;98580.11;107324;1262;62062;-84
2022/12/11 09:09:07;;;;;;;23.70;13.20;;;;;;;10.15;100.00;98580.00;107208;1264;61647;-86
2022/12/11 09:11:36;;;;;;;26.40;13.80;;;;;;;10.24;100.00;98582.41;107577;1262;72477;-86
2022/12/11 09:14:06;;;;;;;21.20;13.10;;;;;;;10.28;100.00;98583.74;106956;1269;62121;-87
2022/12/11 09:16:39;;;;;;;24.80;13.80;;;;;;;10.37;100.00;98576.05;107440;1248;67987;-82
2022/12/11 09:19:13;;;;;;;23.30;13.00;;;;;;;10.43;100.00;98587.10;106584;1271;62505;-87
2022/12/11 09:21:46;;;;;;;24.30;14.50;;;;;;;10.47;100.00;98582.59;107070;1270;58666;-82
2022/12/11 09:24:14;;;;;;;20.80;13.10;;;;;;;10.53;100.00;98573.39;107466;1258;60410;-82
2022/12/11 09:26:43;;;;;;;25.10;14.10;;;;;;;10.55;100.00;98566.61;106835;1259;63246;-81
2022/12/11 09:29:12;;;;;;;26.20;14.50;;;;;;;10.56;100.00;98565.83;106756;1263;61735;-83
2022/12/11 09:31:41;;;;;;;29.10;15.30;;;;;;;10.64;100.00;98560.48;106204;1264;59503;-85
2022/12/11 09:34:12;;;;;;;27.70;15.50;;;;;;;10.72;100.00;98557.17;106466;1263;62866;-84
2022/12/11 09:36:43;;;;;;;22.30;13.80;;;;;;;10.79;100.00;98553.35;106048;1266;62722;-84
2022/12/11 09:39:14;;;;;;;24.10;14.20;;;;;;;10.87;100.00;98549.46;106323;1258;61126;-84
2022/12/11 09:41:50;;;;;;;22.00;14.80;;;;;;;10.72;100.00;98520.79;106186;1260;73130;-84
2022/12/11 09:44:48;;;;;;;35.70;16.00;;;;;;;10.89;100.00;98554.10;106131;1262;61111;-81
2022/12/11 09:47:24;;;;;;;25.70;15.90;;;;;;;10.94;100.00;98565.23;106284;1267;68791;-84
2022/12/11 09:50:05;;;;;;;29.30;16.40;;;;;;;10.95;100.00;98561.82;106236;1263;73390;-82
2022/12/11 09:53:10;;;;;;;25.10;16.40;;;;;;;11.00;100.00;98560.22;106430;1268;58851;-85
2022/12/11 09:56:46;;;;;;;31.70;16.30;;;;;;;11.08;100.00;98558.27;108502;1244;58436;31
2022/12/11 09:59:24;;;;;;;32.40;19.10;;;;;;;11.16;100.00;98557.27;107356;1259;62221;-86
2022/12/11 10:02:36;;;;;;;31.40;17.70;;;;;;;11.13;100.00;98563.67;106978;1267;61672;-83
2022/12/11 10:05:20;;;;;;;31.20;18.70;;;;;;;11.14;100.00;98573.04;106644;1281;59644;-84
2022/12/11 10:08:20;;;;;;;26.30;17.80;;;;;;;11.15;100.00;98573.77;106032;1283;62588;-87
2022/12/11 10:11:19;;;;;;;27.20;17.30;;;;;;;11.17;100.00;98571.45;106086;1286;62044;-84
2022/12/11 10:14:01;;;;;;;27.80;17.50;;;;;;;11.18;100.00;98555.52;105680;1288;60483;-84
2022/12/11 10:16:49;;;;;;;29.30;17.40;;;;;;;11.07;100.00;98549.38;104813;1279;64189;-82
2022/12/11 10:19:27;;;;;;;24.20;16.40;;;;;;;11.12;100.00;98546.52;105221;1281;60822;-85
2022/12/11 10:21:59;;;;;;;34.10;19.20;;;;;;;11.21;100.00;98547.12;105592;1284;59240;-85
2022/12/11 10:24:58;;;;;;;31.20;18.30;;;;;;;11.00;100.00;98538.96;105516;1284;73830;-83
2022/12/11 10:27:43;;;;;;;30.60;16.00;;;;;;;10.54;100.00;98526.17;105173;1289;59171;-84
2022/12/11 10:30:18;;;;;;;35.10;19.90;;;;;;;10.26;100.00;98521.29;105254;1281;60536;-84
2022/12/11 10:32:58;;;;;;;40.90;19.60;;;;;;;10.04;100.00;98509.54;105277;1283;62666;-83
2022/12/11 10:35:50;;;;;;;43.90;22.20;;;;;;;9.91;100.00;98513.58;105267;1287;71478;-81
2022/12/11 10:38:52;;;;;;;35.60;19.70;;;;;;;9.74;100.00;98508.10;106370;1267;59677;-80
2022/12/11 10:41:32;;;;;;;37.80;19.40;;;;;;;9.60;100.00;98500.50;105037;1284;75049;-82
2022/12/11 10:44:14;;;;;;;33.10;18.10;;;;;;;9.36;100.00;98508.55;105270;1280;59095;-84
2022/12/11 10:46:44;;;;;;;38.80;18.90;;;;;;;9.02;100.00;98508.19;105202;1282;60516;-82
2022/12/11 10:49:27;;;;;;;38.80;21.40;;;;;;;8.71;100.00;98503.21;105191;1277;63032;-84
2022/12/11 10:52:00;;;;;;;41.10;22.90;;;;;;;8.43;100.00;98501.71;104647;1275;71481;-84
2022/12/11 10:54:42;;;;;;;42.60;19.90;;;;;;;8.24;100.00;98499.21;104530;1279;70407;-81
2022/12/11 10:57:14;;;;;;;37.00;19.90;;;;;;;8.21;100.00;98503.20;104647;1280;62420;-79
2022/12/11 10:59:45;;;;;;;36.90;21.00;;;;;;;8.27;100.00;98507.96;104636;1280;62743;-78
2022/12/11 11:02:33;;;;;;;40.40;19.80;;;;;;;8.23;100.00;98522.90;104911;1279;61091;-84
2022/12/11 11:05:29;;;;;;;36.20;19.90;;;;;;;8.23;100.00;98532.84;105731;1275;62496;-82
2022/12/11 11:08:12;;;;;;;28.00;14.60;;;;;;;8.12;100.00;98533.32;105624;1289;72217;-85
2022/12/11 11:10:51;;;;;;;;;;;;;;;8.08;100.00;98523.88;105697;1284;59218;-88
2022/12/11 11:13:24;;;;;;;28.30;15.90;;;;;;;8.04;100.00;98525.43;105818;1275;63093;-77
2022/12/11 11:16:11;;;;;;;39.30;18.10;;;;;;;8.06;100.00;98525.66;104938;1289;62158;-84
2022/12/11 11:19:01;;;;;;;26.10;15.10;;;;;;;8.05;100.00;98526.38;105442;1279;61253;-84
2022/12/11 11:21:54;;;;;;;31.30;16.80;;;;;;;7.91;100.00;98527.43;105177;1280;64425;-85
2022/12/11 11:24:54;;;;;;;31.10;16.60;;;;;;;7.89;100.00;98522.77;104959;1289;72241;-84
2022/12/11 11:27:42;;;;;;;40.30;21.60;;;;;;;7.78;100.00;98534.52;105210;1288;59760;-83
2022/12/11 11:31:15;;;;;;;33.90;17.80;;;;;;;7.67;100.00;98550.45;105169;1279;73127;-83
2022/12/11 11:34:04;;;;;;;34.10;18.70;;;;;;;7.84;100.00;98559.25;104561;1292;64637;-82
2022/12/11 11:36:36;;;;;;;37.70;17.70;;;;;;;7.81;100.00;98569.44;104872;1284;58752;-84
2022/12/11 11:39:28;;;;;;;;;;;;;;;7.73;100.00;98572.47;104869;1278;74073;-82
2022/12/11 11:42:31;;;;;;;34.80;19.20;;;;;;;7.67;100.00;98564.84;104648;1279;71406;-80
2022/12/11 11:45:43;;;;;;;35.00;20.30;;;;;;;7.48;100.00;98529.73;104831;1276;69306;-79
2022/12/11 11:48:45;;;;;;;30.30;14.30;;;;;;;7.85;100.00;98562.66;104586;1278;73182;-81
2022/12/11 11:51:33;;;;;;;37.30;20.20;;;;;;;7.82;100.00;98573.67;105085;1284;57518;-85
2022/12/11 11:54:48;;;;;;;30.10;17.50;;;;;;;7.61;100.00;98550.59;105601;1280;57365;-82
2022/12/11 11:57:37;;;;;;;38.10;19.90;;;;;;;7.54;100.00;98559.26;105008;1279;63019;-81
2022/12/11 12:00:19;;;;;;;;;;;;;;;7.86;100.00;98597.00;105523;1284;60662;-84